Time;durP1;ratioP1;P1;durP2;ratioP2;P2;SDS_P1;SDS_P2;PMS_P1;PMS_P2;Temp;Humidity;BMP_temperature;BMP_pressure;BME280_temperature;BME280_humidity;BME280_pressure;Samples;Min_cycle;Max_cycle;Signal;HPM_P1;HPM_P2
2022/07/14 00:00:25;;;;;;;1.33;0.98;;;22.90;65.10;;;;;;4935566;29;20237;-68
2022/07/14 00:02:51;;;;;;;1.40;1.30;;;22.90;65.10;;;;;;4963959;28;20248;-69
2022/07/14 00:05:17;;;;;;;1.33;1.17;;;22.90;65.20;;;;;;4974138;28;20197;-68
2022/07/14 00:07:43;;;;;;;1.38;1.27;;;22.90;65.20;;;;;;4990158;28;20234;-68
2022/07/14 00:10:09;;;;;;;1.27;1.17;;;22.90;65.20;;;;;;4975183;28;20654;-68
2022/07/14 00:12:35;;;;;;;1.40;1.30;;;22.90;65.20;;;;;;4957336;28;20201;-68
2022/07/14 00:15:01;;;;;;;1.25;1.13;;;22.90;65.20;;;;;;4974175;28;20186;-69
2022/07/14 00:17:26;;;;;;;1.25;1.15;;;22.90;65.20;;;;;;4957685;28;20205;-69
2022/07/14 00:19:52;;;;;;;1.10;0.95;;;22.90;65.10;;;;;;4975113;28;20684;-68
2022/07/14 00:22:18;;;;;;;1.20;1.05;;;22.90;65.20;;;;;;4973763;28;20237;-68
2022/07/14 00:24:44;;;;;;;0.85;0.82;;;22.90;65.20;;;;;;4973211;28;20190;-68
2022/07/14 00:27:10;;;;;;;1.25;1.15;;;22.90;65.20;;;;;;4957454;28;20200;-68
2022/07/14 00:29:36;;;;;;;1.30;1.20;;;22.90;65.20;;;;;;4957371;28;20284;-68
2022/07/14 00:32:06;;;;;;;1.27;1.17;;;22.90;65.20;;;;;;4973852;28;20209;-68
2022/07/14 00:34:31;;;;;;;1.48;1.20;;;22.90;65.20;;;;;;4973347;28;20752;-68
2022/07/14 00:36:58;;;;;;;0.95;0.95;;;22.90;65.20;;;;;;4957302;28;20308;-68
2022/07/14 00:39:26;;;;;;;1.23;1.13;;;22.90;65.20;;;;;;4973772;28;20595;-68
2022/07/14 00:41:52;;;;;;;1.00;0.98;;;22.90;65.30;;;;;;4956790;28;20209;-69
2022/07/14 00:44:18;;;;;;;1.55;1.20;;;22.90;65.30;;;;;;4989133;28;20677;-68
2022/07/14 00:46:44;;;;;;;1.50;1.20;;;22.90;65.20;;;;;;4973400;28;20280;-69
2022/07/14 00:49:10;;;;;;;1.92;1.30;;;22.90;65.30;;;;;;4989598;28;20202;-68
2022/07/14 00:51:36;;;;;;;1.58;1.08;;;22.90;65.30;;;;;;4957411;28;20212;-68
2022/07/14 00:54:02;;;;;;;1.00;1.00;;;22.90;65.30;;;;;;4972813;28;20247;-68
2022/07/14 00:56:28;;;;;;;1.30;1.20;;;22.90;65.30;;;;;;4957024;28;20323;-68
2022/07/14 00:58:54;;;;;;;1.17;1.00;;;22.90;65.30;;;;;;4973420;28;20201;-69
2022/07/14 01:01:21;;;;;;;0.88;0.88;;;22.90;65.20;;;;;;4957321;28;20212;-69
2022/07/14 01:03:47;;;;;;;1.63;1.02;;;22.90;65.30;;;;;;4956880;28;20240;-68
2022/07/14 01:06:12;;;;;;;1.38;1.08;;;22.90;65.30;;;;;;4956918;28;20232;-68
2022/07/14 01:08:39;;;;;;;1.00;0.90;;;22.90;65.30;;;;;;4972982;28;20190;-68
2022/07/14 01:11:08;;;;;;;0.88;0.82;;;22.90;65.20;;;;;;4957175;28;20217;-68
2022/07/14 01:13:36;;;;;;;0.98;0.90;;;22.80;65.10;;;;;;4956564;28;20276;-69
2022/07/14 01:16:04;;;;;;;1.40;1.30;;;22.90;65.20;;;;;;4973122;28;20201;-69
2022/07/14 01:18:30;;;;;;;1.10;1.00;;;22.90;65.20;;;;;;4972798;28;20706;-68
2022/07/14 01:20:56;;;;;;;1.17;1.10;;;22.90;65.20;;;;;;4956682;28;20245;-68
2022/07/14 01:23:22;;;;;;;1.00;0.98;;;22.80;65.20;;;;;;4972319;28;20231;-68
2022/07/14 01:25:48;;;;;;;1.17;1.00;;;22.80;65.20;;;;;;4988677;28;20185;-68
2022/07/14 01:28:16;;;;;;;1.75;1.20;;;22.90;65.30;;;;;;4956872;28;20185;-69
2022/07/14 01:30:42;;;;;;;1.80;1.38;;;22.80;65.20;;;;;;4972588;28;20210;-68
2022/07/14 01:33:08;;;;;;;1.10;1.00;;;22.80;65.20;;;;;;4955993;28;20197;-68
2022/07/14 01:35:34;;;;;;;1.45;1.10;;;22.80;65.20;;;;;;4956766;28;20545;-68
2022/07/14 01:38:00;;;;;;;1.55;0.82;;;22.80;65.20;;;;;;4989027;28;20300;-68
2022/07/14 01:40:27;;;;;;;1.15;1.10;;;22.90;65.40;;;;;;4972622;28;20205;-68
2022/07/14 01:42:53;;;;;;;1.08;1.02;;;22.80;65.30;;;;;;4972075;28;20201;-69
2022/07/14 01:45:19;;;;;;;1.20;1.10;;;22.80;65.30;;;;;;4972769;28;20277;-68
2022/07/14 01:47:45;;;;;;;1.08;0.98;;;22.80;65.20;;;;;;4972413;28;20249;-68
2022/07/14 01:50:11;;;;;;;1.13;0.98;;;22.80;65.20;;;;;;4956630;28;20189;-68
2022/07/14 01:52:40;;;;;;;1.58;0.90;;;22.80;65.20;;;;;;4971749;28;20205;-68
2022/07/14 01:55:06;;;;;;;0.95;0.93;;;22.80;65.20;;;;;;4988193;28;20194;-69
2022/07/14 01:57:32;;;;;;;0.77;0.75;;;22.80;65.30;;;;;;4956374;28;20213;-68
2022/07/14 01:59:58;;;;;;;1.00;0.85;;;22.80;65.30;;;;;;4988671;28;20205;-69
2022/07/14 02:02:24;;;;;;;1.13;1.00;;;22.80;65.20;;;;;;4956256;28;20201;-69
2022/07/14 02:04:50;;;;;;;1.30;1.20;;;22.80;65.20;;;;;;4951940;28;20192;-68
2022/07/14 02:07:16;;;;;;;1.20;1.10;;;22.80;65.20;;;;;;4953087;28;20225;-69
2022/07/14 02:12:39;;;;;;;1.15;1.02;;;22.80;65.20;;;;;;4968435;28;20193;-68
2022/07/14 02:15:09;;;;;;;1.48;1.20;;;22.80;65.20;;;;;;4937838;28;20273;-68
2022/07/14 02:17:36;;;;;;;1.35;0.90;;;22.80;65.20;;;;;;4968744;28;20683;-68
2022/07/14 02:20:02;;;;;;;1.15;1.10;;;22.80;65.20;;;;;;4952905;28;20277;-68
2022/07/14 02:22:29;;;;;;;0.88;0.88;;;22.80;65.20;;;;;;4969107;28;20202;-69
2022/07/14 02:24:56;;;;;;;0.90;0.90;;;22.80;65.20;;;;;;4953531;29;20179;-68
2022/07/14 02:27:23;;;;;;;1.00;1.00;;;22.80;65.20;;;;;;4936909;28;20210;-68
2022/07/14 02:29:52;;;;;;;1.02;1.00;;;22.80;65.20;;;;;;4953106;28;20561;-68
2022/07/14 02:32:18;;;;;;;1.33;0.90;;;22.80;65.20;;;;;;4952722;28;20269;-68
2022/07/14 02:34:46;;;;;;;0.80;0.80;;;22.80;65.20;;;;;;4968179;28;20194;-68
2022/07/14 02:37:14;;;;;;;0.80;0.80;;;22.80;65.20;;;;;;4968994;28;20233;-69
2022/07/14 02:39:40;;;;;;;1.27;1.00;;;22.80;65.20;;;;;;4930765;28;20559;-69
2022/07/14 02:42:06;;;;;;;0.80;0.80;;;22.80;65.10;;;;;;4917644;29;20203;-68
2022/07/14 02:44:31;;;;;;;0.90;0.90;;;22.80;65.10;;;;;;4948317;28;20278;-69
2022/07/14 02:46:57;;;;;;;0.80;0.80;;;22.80;65.00;;;;;;4933818;28;20196;-68
2022/07/14 02:49:24;;;;;;;0.85;0.85;;;22.80;65.00;;;;;;4949526;28;20184;-69
2022/07/14 02:51:50;;;;;;;1.27;1.00;;;22.80;65.10;;;;;;4949712;28;20265;-68
2022/07/14 02:54:17;;;;;;;0.90;0.90;;;22.70;65.00;;;;;;4933041;29;20221;-68
2022/07/14 02:56:44;;;;;;;0.80;0.80;;;22.70;65.00;;;;;;4949255;28;20245;-69
2022/07/14 02:59:11;;;;;;;1.00;1.00;;;22.80;65.00;;;;;;4949601;28;20188;-68
2022/07/14 03:01:41;;;;;;;1.00;1.00;;;22.70;65.00;;;;;;4917942;29;20210;-68
2022/07/14 03:04:09;;;;;;;1.17;0.90;;;22.70;65.00;;;;;;4917421;29;20183;-69
2022/07/14 03:06:35;;;;;;;0.90;0.90;;;22.80;65.00;;;;;;4952425;29;20188;-69
2022/07/14 03:09:04;;;;;;;0.80;0.80;;;22.70;65.70;;;;;;4921274;29;20183;-68
2022/07/14 03:11:30;;;;;;;1.30;1.20;;;22.70;65.00;;;;;;4936864;29;20207;-69
2022/07/14 03:13:56;;;;;;;0.80;0.80;;;22.70;64.90;;;;;;4920303;29;20188;-68
2022/07/14 03:16:23;;;;;;;1.08;1.00;;;22.80;64.90;;;;;;4952401;29;20187;-68
2022/07/14 03:18:52;;;;;;;0.68;0.68;;;22.70;64.80;;;;;;4952866;28;20252;-68
2022/07/14 03:21:19;;;;;;;0.93;0.93;;;22.70;64.80;;;;;;4936421;29;20699;-68
2022/07/14 03:23:48;;;;;;;1.13;1.02;;;22.70;65.60;;;;;;4935921;29;20278;-68
2022/07/14 03:26:20;;;;;;;0.90;0.90;;;22.80;64.90;;;;;;4936308;29;20171;-68
2022/07/14 03:28:45;;;;;;;0.90;0.90;;;22.70;64.80;;;;;;4920851;29;20194;-68
2022/07/14 03:31:12;;;;;;;0.73;0.73;;;22.70;64.80;;;;;;4920633;29;20200;-69
2022/07/14 03:33:38;;;;;;;0.82;0.82;;;22.70;64.80;;;;;;4935669;29;20187;-69
2022/07/14 03:36:05;;;;;;;0.82;0.82;;;22.70;64.70;;;;;;4920495;29;20190;-68
2022/07/14 03:38:34;;;;;;;0.88;0.77;;;22.70;64.70;;;;;;4952452;28;20211;-68
2022/07/14 03:41:03;;;;;;;0.95;0.95;;;22.80;64.80;;;;;;4920387;29;20303;-68
2022/07/14 03:43:29;;;;;;;0.90;0.90;;;22.70;64.80;;;;;;4951534;29;20183;-68
2022/07/14 03:45:56;;;;;;;1.02;1.02;;;22.70;64.70;;;;;;4952064;28;20266;-68
2022/07/14 03:48:23;;;;;;;0.82;0.82;;;22.70;64.70;;;;;;4920436;29;20687;-69
2022/07/14 03:50:55;;;;;;;0.90;0.90;;;22.70;64.70;;;;;;4952280;29;20242;-69
2022/07/14 03:53:22;;;;;;;0.70;0.70;;;22.70;64.80;;;;;;4919708;29;20183;-68
2022/07/14 03:55:48;;;;;;;0.93;0.93;;;22.70;64.70;;;;;;4951867;28;20270;-68
2022/07/14 03:58:14;;;;;;;0.85;0.85;;;22.70;64.70;;;;;;4936216;29;20219;-69
2022/07/14 04:00:40;;;;;;;1.00;1.00;;;22.70;64.70;;;;;;4920094;29;20221;-69
2022/07/14 04:03:06;;;;;;;0.88;0.80;;;22.70;64.70;;;;;;4951292;28;20652;-68
2022/07/14 04:05:32;;;;;;;0.80;0.80;;;22.70;64.70;;;;;;4952077;28;20183;-68
2022/07/14 04:08:09;;;;;;;1.20;0.98;;;22.70;64.70;;;;;;4935750;29;20190;-68
2022/07/14 04:10:43;;;;;;;0.80;0.80;;;22.70;64.70;;;;;;4962877;28;20205;-68
2022/07/14 04:13:09;;;;;;;0.95;0.95;;;22.70;64.70;;;;;;4973553;28;20197;-68
2022/07/14 04:15:39;;;;;;;0.82;0.80;;;22.70;65.40;;;;;;4974149;28;20189;-68
2022/07/14 04:18:05;;;;;;;0.80;0.80;;;22.70;64.60;;;;;;4973356;28;20220;-68
2022/07/14 04:20:31;;;;;;;1.20;0.80;;;22.70;64.70;;;;;;4989965;28;20202;-68
2022/07/14 04:22:58;;;;;;;0.93;0.93;;;22.70;64.70;;;;;;4989432;28;20217;-69
2022/07/14 04:25:25;;;;;;;1.08;0.90;;;22.70;64.70;;;;;;4989845;28;20257;-68
2022/07/14 04:27:52;;;;;;;1.08;0.88;;;22.70;64.80;;;;;;4957973;28;20186;-68
2022/07/14 04:30:18;;;;;;;0.80;0.80;;;22.70;65.00;;;;;;4973645;28;20201;-68
2022/07/14 04:32:45;;;;;;;1.20;1.10;;;22.70;64.80;;;;;;4957650;28;20197;-69
2022/07/14 04:35:14;;;;;;;0.90;0.90;;;22.70;64.60;;;;;;4957798;28;20213;-68
2022/07/14 04:37:40;;;;;;;1.00;0.90;;;22.70;64.70;;;;;;4957307;28;20264;-68
2022/07/14 04:40:17;;;;;;;1.08;1.00;;;22.70;64.60;;;;;;4973716;28;20236;-68
2022/07/14 04:42:43;;;;;;;1.38;0.85;;;22.70;64.50;;;;;;4973419;28;20181;-67
2022/07/14 04:45:10;;;;;;;1.00;0.90;;;22.70;64.60;;;;;;4957030;28;20189;-69
2022/07/14 04:47:36;;;;;;;0.90;0.85;;;22.70;64.60;;;;;;4973284;28;20240;-68
2022/07/14 04:52:49;;;;;;;0.98;0.93;;;22.70;64.50;;;;;;4951066;28;20207;-68
2022/07/14 04:55:53;;;;;;;1.27;1.08;;;22.70;64.60;;;;;;4941741;29;20218;-68
2022/07/14 04:58:30;;;;;;;1.10;1.00;;;22.70;64.40;;;;;;4936692;29;20210;-68
2022/07/14 05:01:00;;;;;;;1.98;1.10;;;22.70;64.40;;;;;;4926716;29;20223;-67
2022/07/14 05:03:31;;;;;;;1.33;1.00;;;22.70;64.40;;;;;;4950370;28;20187;-68
2022/07/14 05:05:58;;;;;;;1.00;0.90;;;22.70;64.40;;;;;;4934486;29;20183;-68
2022/07/14 05:08:25;;;;;;;1.58;1.17;;;22.70;64.40;;;;;;4950629;28;20187;-68
2022/07/14 05:10:50;;;;;;;1.20;1.10;;;22.70;64.30;;;;;;4934664;28;20207;-68
2022/07/14 05:13:17;;;;;;;1.30;1.13;;;22.70;64.30;;;;;;4934485;29;20183;-68
2022/07/14 05:15:43;;;;;;;1.52;1.30;;;22.70;64.30;;;;;;4950543;28;20195;-67
2022/07/14 05:18:10;;;;;;;1.33;1.23;;;22.70;64.20;;;;;;4950398;28;20215;-68
2022/07/14 05:20:37;;;;;;;1.58;1.48;;;22.70;64.30;;;;;;4934051;29;20227;-68
2022/07/14 05:23:02;;;;;;;2.15;1.40;;;22.70;64.40;;;;;;4949378;29;20222;-68
2022/07/14 05:25:29;;;;;;;1.25;1.15;;;22.70;64.40;;;;;;4933772;29;20600;-68
2022/07/14 05:27:56;;;;;;;1.48;1.27;;;22.70;64.40;;;;;;4949550;28;20187;-68
2022/07/14 05:30:36;;;;;;;2.00;1.35;;;22.70;64.50;;;;;;4933652;29;20575;-68
2022/07/14 05:33:02;;;;;;;1.33;1.23;;;22.70;64.40;;;;;;4917384;29;20191;-68
2022/07/14 05:35:30;;;;;;;1.35;1.25;;;22.70;64.40;;;;;;4933613;29;20191;-68
2022/07/14 05:37:57;;;;;;;1.10;1.00;;;22.70;64.40;;;;;;4949571;28;20242;-68
2022/07/14 05:40:23;;;;;;;2.30;1.30;;;22.70;64.50;;;;;;4933932;29;20194;-68
2022/07/14 05:42:49;;;;;;;1.48;1.35;;;22.70;64.50;;;;;;4933540;29;20179;-68
2022/07/14 05:45:15;;;;;;;1.42;1.15;;;22.70;64.50;;;;;;4933100;29;20186;-67
2022/07/14 05:47:42;;;;;;;2.42;1.60;;;22.70;64.40;;;;;;4949655;28;20224;-68
2022/07/14 05:50:10;;;;;;;1.30;1.20;;;22.70;64.50;;;;;;4917715;29;20226;-68
2022/07/14 05:52:36;;;;;;;1.55;1.05;;;22.70;64.40;;;;;;4933106;29;20683;-68
2022/07/14 05:55:02;;;;;;;1.40;1.30;;;22.70;64.50;;;;;;4932660;28;20198;-68
2022/07/14 05:57:30;;;;;;;2.35;1.48;;;22.70;64.50;;;;;;4933337;29;20223;-68
2022/07/14 05:59:55;;;;;;;1.33;1.10;;;22.70;64.50;;;;;;4949342;28;20194;-68
2022/07/14 06:02:21;;;;;;;1.50;1.30;;;22.70;64.50;;;;;;4949431;28;20648;-68
2022/07/14 06:04:47;;;;;;;1.88;0.98;;;22.70;64.50;;;;;;4932875;29;20198;-68
2022/07/14 06:07:13;;;;;;;2.03;1.25;;;22.70;64.50;;;;;;4933345;29;20195;-68
2022/07/14 06:09:44;;;;;;;2.33;1.67;;;22.70;64.60;;;;;;4954263;28;20181;-68
2022/07/14 06:12:13;;;;;;;2.28;1.48;;;22.70;64.60;;;;;;4952484;28;20209;-67
2022/07/14 06:14:41;;;;;;;1.33;1.23;;;22.70;64.70;;;;;;4936122;29;20198;-68
2022/07/14 06:17:08;;;;;;;2.03;1.25;;;22.70;64.70;;;;;;4936628;29;20245;-68
2022/07/14 06:19:34;;;;;;;2.30;1.50;;;22.70;64.70;;;;;;4936218;29;20183;-67
2022/07/14 06:22:05;;;;;;;1.33;1.23;;;22.70;64.80;;;;;;4952288;28;20592;-68
2022/07/14 06:24:32;;;;;;;1.30;1.13;;;22.70;64.80;;;;;;4952169;28;20195;-68
2022/07/14 06:26:58;;;;;;;1.45;1.35;;;22.80;65.00;;;;;;4968328;28;20226;-67
2022/07/14 06:29:25;;;;;;;2.35;1.48;;;22.70;65.00;;;;;;4952427;28;20193;-68
2022/07/14 06:31:55;;;;;;;2.10;1.52;;;22.70;64.90;;;;;;4952292;28;20210;-68
2022/07/14 06:34:22;;;;;;;1.63;1.42;;;22.70;64.80;;;;;;4951657;28;20191;-68
2022/07/14 06:36:55;;;;;;;3.20;1.70;;;22.70;65.00;;;;;;4952020;28;20218;-68
2022/07/14 06:39:21;;;;;;;1.20;1.10;;;22.70;65.10;;;;;;4952350;28;20563;-68
2022/07/14 06:41:48;;;;;;;1.67;1.40;;;22.70;65.20;;;;;;4956104;28;20694;-68
2022/07/14 06:44:20;;;;;;;2.30;1.25;;;22.70;65.20;;;;;;4955643;28;20182;-68
2022/07/14 06:46:46;;;;;;;1.52;1.42;;;22.70;65.10;;;;;;4955795;28;20190;-68
2022/07/14 06:49:12;;;;;;;2.05;1.40;;;22.70;65.20;;;;;;4955846;28;20708;-68
2022/07/14 06:51:37;;;;;;;2.20;1.55;;;22.70;65.20;;;;;;4955071;28;20309;-67
2022/07/14 06:54:04;;;;;;;1.77;1.30;;;22.80;65.40;;;;;;4955379;29;20702;-67
2022/07/14 06:56:30;;;;;;;2.63;1.40;;;22.70;65.30;;;;;;4955415;28;20619;-67
2022/07/14 06:58:55;;;;;;;1.83;1.30;;;22.80;65.40;;;;;;4955801;28;20187;-68
2022/07/14 07:01:21;;;;;;;1.85;1.38;;;22.70;65.20;;;;;;4955429;28;20211;-67
2022/07/14 07:03:47;;;;;;;2.33;1.48;;;22.70;65.20;;;;;;4954984;28;20182;-67
2022/07/14 07:08:56;;;;;;;1.48;1.38;;;22.80;65.20;;;;;;4971658;28;20197;-68
2022/07/14 07:11:22;;;;;;;1.38;1.27;;;22.70;65.20;;;;;;4955394;28;20198;-67
2022/07/14 07:13:48;;;;;;;1.40;1.30;;;22.70;65.10;;;;;;4954783;28;20222;-67
2022/07/14 07:16:13;;;;;;;1.17;1.00;;;22.70;65.10;;;;;;4955196;28;20195;-68
2022/07/14 07:18:39;;;;;;;2.65;1.55;;;22.80;65.20;;;;;;4956259;28;20222;-68
2022/07/14 07:21:06;;;;;;;1.52;1.13;;;22.80;65.30;;;;;;4955262;29;20241;-68
2022/07/14 07:23:32;;;;;;;1.00;1.00;;;22.70;65.20;;;;;;4955886;28;20182;-68
2022/07/14 07:25:58;;;;;;;1.30;1.20;;;22.80;65.20;;;;;;4971269;28;20187;-68
2022/07/14 07:28:24;;;;;;;1.75;1.38;;;22.80;65.20;;;;;;4971244;28;20186;-68
2022/07/14 07:30:50;;;;;;;1.50;1.40;;;22.80;65.20;;;;;;4955161;28;20214;-68
2022/07/14 07:33:16;;;;;;;2.10;1.10;;;22.80;65.20;;;;;;4954234;29;20225;-66
2022/07/14 07:35:45;;;;;;;1.25;1.13;;;22.80;65.20;;;;;;4971087;28;20186;-68
2022/07/14 07:38:12;;;;;;;1.50;1.20;;;22.80;65.20;;;;;;4954916;29;20305;-68
2022/07/14 07:40:38;;;;;;;1.48;1.38;;;22.80;65.30;;;;;;4970921;28;20245;-67
2022/07/14 07:43:03;;;;;;;1.45;1.23;;;22.80;65.30;;;;;;4954812;28;20186;-68
2022/07/14 07:45:29;;;;;;;1.73;1.30;;;22.80;65.20;;;;;;4954157;29;20283;-67
2022/07/14 07:47:55;;;;;;;1.55;1.45;;;22.80;65.20;;;;;;4955076;28;20325;-67
2022/07/14 07:50:21;;;;;;;2.10;1.58;;;22.80;65.30;;;;;;4954844;28;20194;-68
2022/07/14 07:52:46;;;;;;;2.92;1.40;;;22.80;65.30;;;;;;4971016;28;20680;-68
2022/07/14 07:55:13;;;;;;;1.33;1.20;;;22.80;65.30;;;;;;4954026;28;20281;-68
2022/07/14 07:57:39;;;;;;;1.73;1.40;;;22.80;65.30;;;;;;4954354;28;20269;-68
2022/07/14 08:00:06;;;;;;;1.50;1.40;;;22.80;65.30;;;;;;4955458;28;20235;-68
2022/07/14 08:02:52;;;;;;;3.03;1.38;;;22.80;65.30;;;;;;4955702;29;20667;-69
2022/07/14 08:05:24;;;;;;;1.83;1.40;;;22.90;65.30;;;;;;4954135;29;20187;-67
2022/07/14 08:07:50;;;;;;;1.40;1.30;;;22.80;65.20;;;;;;4954488;28;20269;-67
2022/07/14 08:10:16;;;;;;;1.60;1.50;;;22.90;65.40;;;;;;4954015;28;20194;-67
2022/07/14 08:12:43;;;;;;;1.20;1.10;;;22.90;65.40;;;;;;4970314;28;20187;-68
2022/07/14 08:15:10;;;;;;;1.98;1.27;;;22.90;65.30;;;;;;4954815;28;20273;-67
2022/07/14 08:17:36;;;;;;;1.30;1.20;;;22.90;65.20;;;;;;4953935;29;20214;-68
2022/07/14 08:20:05;;;;;;;1.48;1.38;;;22.90;65.20;;;;;;4956792;28;20182;-68
2022/07/14 08:22:31;;;;;;;1.98;1.40;;;22.90;65.20;;;;;;4937974;29;20202;-68
2022/07/14 08:24:57;;;;;;;1.25;1.15;;;22.90;65.10;;;;;;4953457;28;20213;-67
2022/07/14 08:27:23;;;;;;;2.10;1.33;;;22.90;65.10;;;;;;4953954;28;20583;-67
2022/07/14 08:29:50;;;;;;;1.88;1.38;;;22.90;65.10;;;;;;4955228;28;20222;-68
2022/07/14 08:32:17;;;;;;;1.30;1.20;;;22.90;65.10;;;;;;4955051;28;20272;-68
2022/07/14 08:34:43;;;;;;;1.42;1.23;;;22.90;65.00;;;;;;4953451;28;20201;-68
2022/07/14 08:37:09;;;;;;;1.80;1.10;;;22.90;65.00;;;;;;4953575;28;20229;-67
2022/07/14 08:39:35;;;;;;;1.50;1.20;;;22.90;65.80;;;;;;4969959;28;20190;-67
2022/07/14 08:42:03;;;;;;;1.77;1.20;;;23.00;65.00;;;;;;4954873;28;20293;-67
2022/07/14 08:44:29;;;;;;;1.30;1.20;;;23.00;64.90;;;;;;4969156;28;20245;-67
2022/07/14 08:46:56;;;;;;;1.33;1.20;;;23.00;64.80;;;;;;4969680;28;20194;-67
2022/07/14 08:49:23;;;;;;;1.25;1.13;;;23.00;64.90;;;;;;4969776;28;20202;-67
2022/07/14 08:51:50;;;;;;;1.70;1.45;;;23.00;64.90;;;;;;4953643;29;20613;-67
2022/07/14 08:54:17;;;;;;;1.38;1.23;;;23.00;64.80;;;;;;4952572;28;20179;-68
2022/07/14 08:56:43;;;;;;;2.72;1.33;;;23.00;64.80;;;;;;4953271;29;20186;-67
2022/07/14 08:59:09;;;;;;;1.52;1.20;;;23.10;65.00;;;;;;4953407;28;20254;-67
2022/07/14 09:01:36;;;;;;;2.15;1.20;;;23.00;65.00;;;;;;4953494;28;20221;-67
2022/07/14 09:04:03;;;;;;;1.27;1.17;;;23.10;65.00;;;;;;4968591;28;20265;-67
2022/07/14 09:06:46;;;;;;;1.58;1.20;;;23.10;64.90;;;;;;4953395;28;20194;-67
2022/07/14 09:09:25;;;;;;;1.55;1.30;;;23.10;64.90;;;;;;4969473;28;20191;-68
2022/07/14 09:12:01;;;;;;;1.60;1.50;;;23.10;65.00;;;;;;4953048;28;20296;-68
2022/07/14 09:17:20;;;;;;;2.08;1.25;;;23.10;64.80;;;;;;4954120;28;20198;-68
2022/07/14 09:20:10;;;;;;;1.27;0.90;;;23.10;65.00;;;;;;4953144;29;20572;-68
2022/07/14 09:22:38;;;;;;;1.70;1.60;;;23.10;65.00;;;;;;4969265;28;20190;-68
2022/07/14 09:25:09;;;;;;;1.33;1.23;;;23.10;65.00;;;;;;4951165;28;20270;-69
2022/07/14 09:27:37;;;;;;;2.13;1.55;;;23.10;64.90;;;;;;4965476;28;20186;-68
2022/07/14 09:30:05;;;;;;;1.98;1.55;;;23.10;65.10;;;;;;4969563;28;20195;-68
2022/07/14 09:32:47;;;;;;;1.60;1.50;;;23.10;64.90;;;;;;4969279;28;20297;-68
2022/07/14 09:35:17;;;;;;;2.17;1.83;;;23.10;64.70;;;;;;4969160;28;20586;-68
2022/07/14 09:37:44;;;;;;;6.47;4.10;;;23.10;64.80;;;;;;4969303;28;20211;-68
2022/07/14 09:40:19;;;;;;;9.07;6.78;;;23.10;65.00;;;;;;4969332;28;20678;-68
2022/07/14 09:42:59;;;;;;;7.97;5.07;;;23.10;64.90;;;;;;4969350;28;20201;-68
2022/07/14 09:45:35;;;;;;;9.40;7.68;;;23.10;64.90;;;;;;4969024;28;20186;-68
2022/07/14 09:48:11;;;;;;;11.10;7.88;;;23.10;64.90;;;;;;4937233;28;20203;-69
2022/07/14 09:50:56;;;;;;;9.40;6.82;;;23.10;65.00;;;;;;4954347;28;20206;-67
2022/07/14 09:53:35;;;;;;;13.15;9.30;;;23.10;64.90;;;;;;4952669;29;20178;-68
2022/07/14 09:56:06;;;;;;;14.82;9.57;;;23.10;64.60;;;;;;4953172;28;20214;-68
2022/07/14 09:58:51;;;;;;;14.02;10.48;;;23.10;64.90;;;;;;4969171;28;20210;-67
2022/07/14 10:01:18;;;;;;;16.77;11.88;;;23.10;64.80;;;;;;4953279;28;20250;-68
2022/07/14 10:03:50;;;;;;;11.27;8.98;;;23.10;64.60;;;;;;4952701;28;20196;-68
2022/07/14 10:06:17;;;;;;;11.13;8.55;;;23.10;64.70;;;;;;4953129;29;20233;-68
2022/07/14 10:08:55;;;;;;;11.30;8.48;;;23.10;64.40;;;;;;4968966;28;20734;-68
2022/07/14 10:11:21;;;;;;;13.40;8.95;;;23.10;64.70;;;;;;4947348;29;20385;-68
2022/07/14 10:13:49;;;;;;;15.68;11.02;;;23.10;64.60;;;;;;4945976;28;20693;-68
2022/07/14 10:16:15;;;;;;;12.25;9.73;;;23.10;64.60;;;;;;4955940;28;20186;-68
2022/07/14 10:18:45;;;;;;;13.60;10.55;;;23.10;64.60;;;;;;4956839;28;20218;-69
2022/07/14 10:21:11;;;;;;;13.35;9.68;;;23.10;64.40;;;;;;4957021;28;20681;-68
2022/07/14 10:23:38;;;;;;;18.10;12.10;;;23.10;64.60;;;;;;4954602;28;20179;-67
2022/07/14 10:26:09;;;;;;;16.42;11.85;;;23.20;64.70;;;;;;4957849;28;20654;-68
2022/07/14 10:28:35;;;;;;;15.90;11.65;;;23.20;64.60;;;;;;4972543;28;20181;-68
2022/07/14 10:31:43;;;;;;;13.60;10.40;;;23.20;64.30;;;;;;4970394;28;20198;-68
2022/07/14 10:34:40;;;;;;;13.05;9.63;;;23.20;64.30;;;;;;4954690;28;20182;-68
2022/07/14 10:37:22;;;;;;;13.98;10.25;;;23.10;64.30;;;;;;4947036;28;20223;-68
2022/07/14 10:40:01;;;;;;;13.55;9.95;;;23.20;64.50;;;;;;4937509;29;20179;-68
2022/07/14 10:42:52;;;;;;;14.23;10.85;;;23.20;64.40;;;;;;4953409;28;20210;-67
2022/07/14 10:45:18;;;;;;;13.50;11.00;;;23.20;64.50;;;;;;4937790;29;20171;-68
2022/07/14 10:47:52;;;;;;;13.43;10.13;;;23.20;64.30;;;;;;4952086;29;20205;-68
2022/07/14 10:50:23;;;;;;;15.18;10.70;;;23.20;64.40;;;;;;4956260;28;20194;-67
2022/07/14 10:52:54;;;;;;;10.93;8.70;;;23.20;64.50;;;;;;4956259;28;20205;-67
2022/07/14 10:55:29;;;;;;;10.30;8.43;;;23.20;64.40;;;;;;4955497;28;20194;-67
2022/07/14 10:58:03;;;;;;;10.75;8.38;;;23.20;64.50;;;;;;4971482;28;20206;-68
2022/07/14 11:00:41;;;;;;;9.32;7.97;;;23.20;64.60;;;;;;4952713;28;20583;-68
2022/07/14 11:03:37;;;;;;;10.75;9.40;;;23.20;64.50;;;;;;4936942;29;20270;-68
2022/07/14 11:08:31;;;;;;;11.93;9.18;;;23.20;65.10;;;;;;4965256;28;20186;-68
2022/07/14 11:11:02;;;;;;;9.80;7.88;;;23.20;64.30;;;;;;4970730;28;20210;-68
2022/07/14 11:13:29;;;;;;;11.90;8.68;;;23.20;64.30;;;;;;4954737;28;20189;-68
2022/07/14 11:16:03;;;;;;;10.50;8.55;;;23.20;64.30;;;;;;4935405;29;20234;-67
2022/07/14 11:18:41;;;;;;;10.98;8.00;;;23.20;64.30;;;;;;4951558;28;20215;-68
2022/07/14 11:21:18;;;;;;;8.00;6.88;;;23.20;64.30;;;;;;4935392;29;20218;-67
2022/07/14 11:23:47;;;;;;;9.07;7.10;;;23.20;64.30;;;;;;4956114;28;20254;-68
2022/07/14 11:26:31;;;;;;;8.57;6.97;;;23.30;64.40;;;;;;4961963;28;20201;-68
2022/07/14 11:28:58;;;;;;;9.65;7.43;;;23.20;64.30;;;;;;4954687;28;20221;-68
2022/07/14 11:31:25;;;;;;;11.43;7.95;;;23.30;64.40;;;;;;4955410;28;20209;-67
2022/07/14 11:37:00;;;;;;;9.25;7.32;;;23.30;64.40;;;;;;4970367;28;20190;-68
2022/07/14 11:39:34;;;;;;;9.15;6.07;;;23.20;63.70;;;;;;4954371;28;20191;-67
2022/07/14 11:42:11;;;;;;;7.53;5.82;;;23.30;64.10;;;;;;4955438;29;20272;-67
2022/07/14 11:44:40;;;;;;;7.10;5.90;;;23.30;64.00;;;;;;4953776;29;20188;-67
2022/07/14 11:47:07;;;;;;;9.05;6.80;;;23.30;64.00;;;;;;4954104;28;20216;-67
2022/07/14 11:49:36;;;;;;;8.13;7.00;;;23.30;63.90;;;;;;4955471;28;20196;-68
2022/07/14 11:52:05;;;;;;;7.85;6.15;;;23.30;63.90;;;;;;4955302;28;20213;-67
2022/07/14 11:54:32;;;;;;;8.05;6.13;;;23.30;63.60;;;;;;4953601;29;20190;-68
2022/07/14 11:57:09;;;;;;;10.43;6.32;;;23.30;63.80;;;;;;4954169;29;20222;-68
2022/07/14 12:02:21;;;;;;;6.20;5.40;;;23.30;63.70;;;;;;5089745;27;21042;-68
2022/07/14 12:04:57;;;;;;;6.95;5.45;;;23.30;63.30;;;;;;5084850;28;20245;-68
2022/07/14 12:07:43;;;;;;;5.97;5.22;;;23.30;63.50;;;;;;5069534;28;20170;-68
2022/07/14 12:10:13;;;;;;;7.05;5.35;;;23.30;63.10;;;;;;5068739;28;20230;-68
2022/07/14 12:12:47;;;;;;;5.68;4.68;;;23.30;63.40;;;;;;5068363;28;20181;-68
2022/07/14 12:15:25;;;;;;;5.75;4.88;;;23.30;63.40;;;;;;5051355;28;20174;-68
2022/07/14 12:17:53;;;;;;;6.40;5.20;;;23.30;63.20;;;;;;5068072;28;20664;-68
2022/07/14 12:20:21;;;;;;;6.47;5.25;;;23.40;63.20;;;;;;5068130;28;20814;-68
2022/07/14 12:22:54;;;;;;;7.05;5.20;;;23.40;63.20;;;;;;5085094;28;20209;-68
2022/07/14 12:25:32;;;;;;;5.90;4.78;;;23.30;62.70;;;;;;5067440;28;20205;-68
2022/07/14 12:28:04;;;;;;;5.75;4.75;;;23.30;62.80;;;;;;5068159;28;20194;-68
2022/07/14 12:30:53;;;;;;;6.05;5.07;;;23.30;63.00;;;;;;5069143;28;20212;-68
2022/07/14 12:33:28;;;;;;;5.28;4.43;;;23.40;62.80;;;;;;5051599;28;20186;-68
2022/07/14 12:35:57;;;;;;;5.68;4.43;;;23.40;62.90;;;;;;5067311;28;20182;-68
2022/07/14 12:38:25;;;;;;;5.35;4.57;;;23.40;63.00;;;;;;5069069;28;20189;-68
2022/07/14 12:41:00;;;;;;;6.28;4.43;;;23.40;62.90;;;;;;5068842;28;20213;-68
2022/07/14 12:43:30;;;;;;;5.15;4.32;;;23.40;62.80;;;;;;5051127;28;20186;-69
2022/07/14 12:46:26;;;;;;;4.65;3.80;;;23.40;62.80;;;;;;5068290;28;20166;-68
2022/07/14 12:48:52;;;;;;;5.40;4.15;;;23.40;62.60;;;;;;5063801;28;20202;-68
2022/07/14 12:51:26;;;;;;;5.53;4.70;;;23.40;62.50;;;;;;5067441;28;20298;-68
2022/07/14 12:54:15;;;;;;;4.65;4.03;;;23.40;62.50;;;;;;5067056;28;20232;-68
2022/07/14 12:56:44;;;;;;;5.50;4.25;;;23.40;62.30;;;;;;5050642;28;20182;-68
2022/07/14 12:59:17;;;;;;;3.80;3.38;;;23.40;62.40;;;;;;5068842;28;20194;-68
2022/07/14 13:01:57;;;;;;;5.20;3.90;;;23.40;62.50;;;;;;5068606;28;20735;-68
2022/07/14 13:04:35;;;;;;;4.18;3.78;;;23.40;62.50;;;;;;5066691;28;20213;-68
2022/07/14 13:07:22;;;;;;;4.90;3.75;;;23.40;62.30;;;;;;5067146;28;20178;-68
2022/07/14 13:10:17;;;;;;;4.32;3.92;;;23.40;62.90;;;;;;5084081;28;20241;-68
2022/07/14 13:12:53;;;;;;;5.13;3.88;;;23.40;62.20;;;;;;5060583;28;20174;-68
2022/07/14 13:15:24;;;;;;;3.88;3.47;;;23.40;62.20;;;;;;5036821;28;20728;-68